Collings Lakes, New Jersey
Current Conditions -  °F | °C
As of 6:54 PM on Friday 21 Nov 2014 (Local Time) from KMIV Reporting Station
Clear Clear  
Wind Chill: 25°   Ceiling: Unl
Heat Index: 25°   Visibility: 10mi
Dew Point: 13°   Wind: 0mph
Humidity: 60%   Direction: NA
Pressure: 30.52"   Gusts: NA
Location:  39.6478°N, 74.9514°W
Report Text: KMIV 212354Z AUTO 00000KT 10SM CLR M04/M11 A3052 RMK AO2 SLP334 T10391106 10028 21050 51027
Loading
Personal Weather Stations






























Interactive Weather Map New forecast layout! Learn more

10-Day Weather Forecast

Advertisements
Track Severe Weather on mobile